sensor_id;sensor_type;location;lat;lon;timestamp;P1;durP1;ratioP1;P2;durP2;ratioP2
7971;SDS011;4031;49.758;6.120;2023-07-30T00:01:43;2.20;;;2.00;;
7971;SDS011;4031;49.758;6.120;2023-07-30T00:04:09;3.70;;;2.10;;
7971;SDS011;4031;49.758;6.120;2023-07-30T00:06:35;3.00;;;1.50;;
7971;SDS011;4031;49.758;6.120;2023-07-30T00:09:01;2.13;;;1.90;;
7971;SDS011;4031;49.758;6.120;2023-07-30T00:11:26;7.60;;;1.83;;
7971;SDS011;4031;49.758;6.120;2023-07-30T00:13:52;1.80;;;1.40;;
7971;SDS011;4031;49.758;6.120;2023-07-30T00:16:18;4.57;;;1.93;;
7971;SDS011;4031;49.758;6.120;2023-07-30T00:18:43;5.30;;;2.27;;
7971;SDS011;4031;49.758;6.120;2023-07-30T00:21:09;4.60;;;1.97;;
7971;SDS011;4031;49.758;6.120;2023-07-30T00:23:35;3.23;;;2.37;;
7971;SDS011;4031;49.758;6.120;2023-07-30T00:26:00;3.03;;;2.13;;
7971;SDS011;4031;49.758;6.120;2023-07-30T00:28:26;2.57;;;1.90;;
7971;SDS011;4031;49.758;6.120;2023-07-30T00:30:52;3.70;;;2.40;;
7971;SDS011;4031;49.758;6.120;2023-07-30T00:33:17;3.57;;;2.60;;
7971;SDS011;4031;49.758;6.120;2023-07-30T00:35:43;4.70;;;2.30;;
7971;SDS011;4031;49.758;6.120;2023-07-30T00:38:09;3.33;;;2.00;;
7971;SDS011;4031;49.758;6.120;2023-07-30T00:40:41;4.87;;;2.60;;
7971;SDS011;4031;49.758;6.120;2023-07-30T00:43:06;2.67;;;2.27;;
7971;SDS011;4031;49.758;6.120;2023-07-30T00:45:32;3.87;;;2.57;;
7971;SDS011;4031;49.758;6.120;2023-07-30T00:47:59;2.90;;;2.10;;
7971;SDS011;4031;49.758;6.120;2023-07-30T00:50:25;3.50;;;2.50;;
7971;SDS011;4031;49.758;6.120;2023-07-30T00:52:51;2.37;;;2.10;;
7971;SDS011;4031;49.758;6.120;2023-07-30T00:55:17;5.33;;;2.37;;
7971;SDS011;4031;49.758;6.120;2023-07-30T00:57:43;2.20;;;2.00;;
7971;SDS011;4031;49.758;6.120;2023-07-30T01:00:10;2.97;;;2.27;;
7971;SDS011;4031;49.758;6.120;2023-07-30T01:02:36;2.40;;;2.00;;
7971;SDS011;4031;49.758;6.120;2023-07-30T01:05:02;2.73;;;2.30;;
7971;SDS011;4031;49.758;6.120;2023-07-30T01:07:29;11.00;;;2.77;;
7971;SDS011;4031;49.758;6.120;2023-07-30T01:09:56;4.50;;;2.07;;
7971;SDS011;4031;49.758;6.120;2023-07-30T01:12:22;8.03;;;2.40;;
7971;SDS011;4031;49.758;6.120;2023-07-30T01:14:48;2.37;;;2.10;;
7971;SDS011;4031;49.758;6.120;2023-07-30T01:17:15;3.90;;;2.10;;
7971;SDS011;4031;49.758;6.120;2023-07-30T01:19:41;2.33;;;2.00;;
7971;SDS011;4031;49.758;6.120;2023-07-30T01:22:07;3.30;;;2.33;;
7971;SDS011;4031;49.758;6.120;2023-07-30T01:24:33;3.30;;;2.07;;
7971;SDS011;4031;49.758;6.120;2023-07-30T01:26:59;4.40;;;1.90;;
7971;SDS011;4031;49.758;6.120;2023-07-30T01:29:48;4.50;;;2.40;;
7971;SDS011;4031;49.758;6.120;2023-07-30T01:32:19;4.10;;;2.03;;
7971;SDS011;4031;49.758;6.120;2023-07-30T01:34:51;3.67;;;2.27;;
7971;SDS011;4031;49.758;6.120;2023-07-30T01:37:19;3.87;;;2.80;;
7971;SDS011;4031;49.758;6.120;2023-07-30T01:39:45;4.83;;;2.87;;
7971;SDS011;4031;49.758;6.120;2023-07-30T01:42:13;4.77;;;3.47;;
7971;SDS011;4031;49.758;6.120;2023-07-30T01:44:39;5.80;;;3.40;;
7971;SDS011;4031;49.758;6.120;2023-07-30T01:47:05;3.77;;;2.80;;
7971;SDS011;4031;49.758;6.120;2023-07-30T01:49:31;2.90;;;2.20;;
7971;SDS011;4031;49.758;6.120;2023-07-30T01:51:57;5.07;;;2.00;;
7971;SDS011;4031;49.758;6.120;2023-07-30T01:54:22;2.10;;;1.77;;
7971;SDS011;4031;49.758;6.120;2023-07-30T01:56:48;3.60;;;3.00;;
7971;SDS011;4031;49.758;6.120;2023-07-30T01:59:14;2.90;;;2.30;;
7971;SDS011;4031;49.758;6.120;2023-07-30T02:01:41;4.10;;;2.80;;
7971;SDS011;4031;49.758;6.120;2023-07-30T02:04:07;4.80;;;2.27;;
7971;SDS011;4031;49.758;6.120;2023-07-30T02:06:33;6.80;;;2.83;;
7971;SDS011;4031;49.758;6.120;2023-07-30T02:08:58;5.63;;;3.30;;
7971;SDS011;4031;49.758;6.120;2023-07-30T02:11:24;3.33;;;2.43;;
7971;SDS011;4031;49.758;6.120;2023-07-30T02:13:50;4.10;;;2.67;;
7971;SDS011;4031;49.758;6.120;2023-07-30T02:16:15;3.80;;;2.80;;
7971;SDS011;4031;49.758;6.120;2023-07-30T02:18:41;5.00;;;2.90;;
7971;SDS011;4031;49.758;6.120;2023-07-30T02:21:07;5.63;;;3.43;;
7971;SDS011;4031;49.758;6.120;2023-07-30T02:23:33;3.10;;;2.80;;
7971;SDS011;4031;49.758;6.120;2023-07-30T02:25:58;4.30;;;2.90;;
7971;SDS011;4031;49.758;6.120;2023-07-30T02:28:24;5.53;;;3.33;;
7971;SDS011;4031;49.758;6.120;2023-07-30T02:30:50;6.87;;;2.80;;
7971;SDS011;4031;49.758;6.120;2023-07-30T02:33:15;10.57;;;3.43;;
7971;SDS011;4031;49.758;6.120;2023-07-30T02:35:42;4.73;;;2.93;;
7971;SDS011;4031;49.758;6.120;2023-07-30T02:38:09;5.70;;;2.80;;
7971;SDS011;4031;49.758;6.120;2023-07-30T02:40:34;12.13;;;3.30;;
7971;SDS011;4031;49.758;6.120;2023-07-30T02:43:00;4.13;;;2.50;;
7971;SDS011;4031;49.758;6.120;2023-07-30T02:45:26;5.43;;;2.80;;
7971;SDS011;4031;49.758;6.120;2023-07-30T02:47:52;15.03;;;3.17;;
7971;SDS011;4031;49.758;6.120;2023-07-30T02:50:17;6.93;;;3.57;;
7971;SDS011;4031;49.758;6.120;2023-07-30T02:52:43;5.90;;;3.87;;
7971;SDS011;4031;49.758;6.120;2023-07-30T02:55:09;11.53;;;3.30;;
7971;SDS011;4031;49.758;6.120;2023-07-30T02:57:35;8.83;;;3.70;;
7971;SDS011;4031;49.758;6.120;2023-07-30T03:00:01;4.87;;;3.03;;
7971;SDS011;4031;49.758;6.120;2023-07-30T03:02:28;4.70;;;3.10;;
7971;SDS011;4031;49.758;6.120;2023-07-30T03:04:54;4.57;;;2.87;;
7971;SDS011;4031;49.758;6.120;2023-07-30T03:07:20;6.77;;;3.40;;
7971;SDS011;4031;49.758;6.120;2023-07-30T03:09:46;6.00;;;3.13;;
7971;SDS011;4031;49.758;6.120;2023-07-30T03:12:11;4.60;;;2.80;;
7971;SDS011;4031;49.758;6.120;2023-07-30T03:14:38;9.60;;;4.47;;
7971;SDS011;4031;49.758;6.120;2023-07-30T03:17:03;5.10;;;3.40;;
7971;SDS011;4031;49.758;6.120;2023-07-30T03:19:30;5.67;;;3.60;;
7971;SDS011;4031;49.758;6.120;2023-07-30T03:21:56;5.97;;;3.47;;
7971;SDS011;4031;49.758;6.120;2023-07-30T03:24:22;7.93;;;4.10;;
7971;SDS011;4031;49.758;6.120;2023-07-30T03:26:47;5.00;;;3.80;;
7971;SDS011;4031;49.758;6.120;2023-07-30T03:29:14;5.83;;;3.60;;
7971;SDS011;4031;49.758;6.120;2023-07-30T03:31:40;4.40;;;3.30;;
7971;SDS011;4031;49.758;6.120;2023-07-30T03:34:06;5.53;;;3.40;;
7971;SDS011;4031;49.758;6.120;2023-07-30T03:36:32;9.60;;;4.60;;
7971;SDS011;4031;49.758;6.120;2023-07-30T03:38:58;4.90;;;3.20;;
7971;SDS011;4031;49.758;6.120;2023-07-30T03:41:24;7.90;;;4.07;;
7971;SDS011;4031;49.758;6.120;2023-07-30T03:43:50;9.27;;;4.70;;
7971;SDS011;4031;49.758;6.120;2023-07-30T03:46:16;8.47;;;3.40;;
7971;SDS011;4031;49.758;6.120;2023-07-30T03:48:41;7.00;;;3.97;;
7971;SDS011;4031;49.758;6.120;2023-07-30T03:51:07;7.50;;;3.90;;
7971;SDS011;4031;49.758;6.120;2023-07-30T03:53:33;5.43;;;3.80;;
7971;SDS011;4031;49.758;6.120;2023-07-30T03:55:59;4.97;;;3.40;;
7971;SDS011;4031;49.758;6.120;2023-07-30T03:58:26;9.27;;;4.00;;
7971;SDS011;4031;49.758;6.120;2023-07-30T04:00:52;7.07;;;4.17;;
7971;SDS011;4031;49.758;6.120;2023-07-30T04:03:18;7.37;;;4.00;;
7971;SDS011;4031;49.758;6.120;2023-07-30T04:05:43;6.20;;;3.97;;
7971;SDS011;4031;49.758;6.120;2023-07-30T04:08:09;5.23;;;3.50;;
7971;SDS011;4031;49.758;6.120;2023-07-30T04:10:35;8.30;;;4.20;;
7971;SDS011;4031;49.758;6.120;2023-07-30T04:13:01;6.77;;;4.50;;
7971;SDS011;4031;49.758;6.120;2023-07-30T04:15:27;9.97;;;4.10;;
7971;SDS011;4031;49.758;6.120;2023-07-30T04:17:53;7.83;;;4.13;;
7971;SDS011;4031;49.758;6.120;2023-07-30T04:20:19;13.43;;;4.67;;
7971;SDS011;4031;49.758;6.120;2023-07-30T04:22:44;11.13;;;4.57;;
7971;SDS011;4031;49.758;6.120;2023-07-30T04:25:10;8.20;;;4.53;;
7971;SDS011;4031;49.758;6.120;2023-07-30T04:27:36;5.70;;;4.20;;
7971;SDS011;4031;49.758;6.120;2023-07-30T04:30:03;10.57;;;4.63;;
7971;SDS011;4031;49.758;6.120;2023-07-30T04:32:32;5.83;;;4.00;;
7971;SDS011;4031;49.758;6.120;2023-07-30T04:34:58;7.30;;;4.20;;
7971;SDS011;4031;49.758;6.120;2023-07-30T04:37:24;11.17;;;4.10;;
7971;SDS011;4031;49.758;6.120;2023-07-30T04:39:49;10.43;;;4.40;;
7971;SDS011;4031;49.758;6.120;2023-07-30T04:42:15;10.33;;;4.73;;
7971;SDS011;4031;49.758;6.120;2023-07-30T04:44:41;6.73;;;3.90;;
7971;SDS011;4031;49.758;6.120;2023-07-30T04:47:07;9.80;;;4.30;;
7971;SDS011;4031;49.758;6.120;2023-07-30T04:49:33;10.77;;;4.77;;
7971;SDS011;4031;49.758;6.120;2023-07-30T04:51:59;7.10;;;3.93;;
7971;SDS011;4031;49.758;6.120;2023-07-30T04:54:24;7.17;;;4.50;;
7971;SDS011;4031;49.758;6.120;2023-07-30T04:56:50;7.07;;;4.87;;
7971;SDS011;4031;49.758;6.120;2023-07-30T04:59:16;7.77;;;5.50;;
7971;SDS011;4031;49.758;6.120;2023-07-30T05:01:41;10.97;;;5.37;;
7971;SDS011;4031;49.758;6.120;2023-07-30T05:04:07;10.23;;;4.40;;
7971;SDS011;4031;49.758;6.120;2023-07-30T05:06:33;7.17;;;4.40;;
7971;SDS011;4031;49.758;6.120;2023-07-30T05:08:59;6.53;;;4.33;;
7971;SDS011;4031;49.758;6.120;2023-07-30T05:11:24;7.33;;;4.80;;
7971;SDS011;4031;49.758;6.120;2023-07-30T05:13:50;11.30;;;3.73;;
7971;SDS011;4031;49.758;6.120;2023-07-30T05:16:16;3.03;;;2.00;;
7971;SDS011;4031;49.758;6.120;2023-07-30T05:18:41;3.73;;;1.80;;
7971;SDS011;4031;49.758;6.120;2023-07-30T05:21:07;2.10;;;1.10;;
7971;SDS011;4031;49.758;6.120;2023-07-30T05:23:33;1.33;;;1.23;;
7971;SDS011;4031;49.758;6.120;2023-07-30T05:25:58;2.30;;;1.77;;
7971;SDS011;4031;49.758;6.120;2023-07-30T05:28:24;2.33;;;1.40;;
7971;SDS011;4031;49.758;6.120;2023-07-30T05:30:50;1.70;;;1.40;;
7971;SDS011;4031;49.758;6.120;2023-07-30T05:33:16;2.83;;;1.30;;
7971;SDS011;4031;49.758;6.120;2023-07-30T05:35:42;2.70;;;1.50;;
7971;SDS011;4031;49.758;6.120;2023-07-30T05:38:08;3.00;;;1.50;;
7971;SDS011;4031;49.758;6.120;2023-07-30T05:40:34;2.13;;;1.70;;
7971;SDS011;4031;49.758;6.120;2023-07-30T05:43:00;2.77;;;1.33;;
7971;SDS011;4031;49.758;6.120;2023-07-30T05:45:26;4.43;;;2.37;;
7971;SDS011;4031;49.758;6.120;2023-07-30T05:47:52;2.70;;;1.87;;
7971;SDS011;4031;49.758;6.120;2023-07-30T05:50:18;2.47;;;1.50;;
7971;SDS011;4031;49.758;6.120;2023-07-30T05:52:43;5.13;;;2.17;;
7971;SDS011;4031;49.758;6.120;2023-07-30T05:55:09;3.20;;;1.37;;
7971;SDS011;4031;49.758;6.120;2023-07-30T05:57:35;2.20;;;1.80;;
7971;SDS011;4031;49.758;6.120;2023-07-30T06:00:01;3.23;;;1.93;;
7971;SDS011;4031;49.758;6.120;2023-07-30T06:02:27;2.40;;;1.63;;
7971;SDS011;4031;49.758;6.120;2023-07-30T06:04:53;2.97;;;2.10;;
7971;SDS011;4031;49.758;6.120;2023-07-30T06:07:19;5.10;;;1.70;;
7971;SDS011;4031;49.758;6.120;2023-07-30T06:09:44;2.33;;;1.77;;
7971;SDS011;4031;49.758;6.120;2023-07-30T06:12:10;2.40;;;1.97;;
7971;SDS011;4031;49.758;6.120;2023-07-30T06:14:36;2.30;;;1.50;;
7971;SDS011;4031;49.758;6.120;2023-07-30T06:17:02;2.27;;;1.90;;
7971;SDS011;4031;49.758;6.120;2023-07-30T06:19:27;3.47;;;1.53;;
7971;SDS011;4031;49.758;6.120;2023-07-30T06:21:53;3.90;;;1.80;;
7971;SDS011;4031;49.758;6.120;2023-07-30T06:24:19;2.47;;;1.70;;
7971;SDS011;4031;49.758;6.120;2023-07-30T06:26:45;3.23;;;1.60;;
7971;SDS011;4031;49.758;6.120;2023-07-30T06:29:10;2.57;;;1.43;;
7971;SDS011;4031;49.758;6.120;2023-07-30T06:31:36;2.27;;;1.40;;
7971;SDS011;4031;49.758;6.120;2023-07-30T06:34:02;1.83;;;1.53;;
7971;SDS011;4031;49.758;6.120;2023-07-30T06:36:27;3.30;;;1.53;;
7971;SDS011;4031;49.758;6.120;2023-07-30T06:38:53;2.10;;;1.67;;
7971;SDS011;4031;49.758;6.120;2023-07-30T06:41:19;3.40;;;1.87;;
7971;SDS011;4031;49.758;6.120;2023-07-30T06:43:46;1.40;;;1.30;;
7971;SDS011;4031;49.758;6.120;2023-07-30T06:46:11;3.43;;;1.77;;
7971;SDS011;4031;49.758;6.120;2023-07-30T06:48:37;3.03;;;2.10;;
7971;SDS011;4031;49.758;6.120;2023-07-30T06:51:05;1.67;;;1.50;;
7971;SDS011;4031;49.758;6.120;2023-07-30T06:53:32;3.73;;;1.50;;
7971;SDS011;4031;49.758;6.120;2023-07-30T06:55:57;2.03;;;1.40;;
7971;SDS011;4031;49.758;6.120;2023-07-30T06:58:23;1.03;;;0.93;;
7971;SDS011;4031;49.758;6.120;2023-07-30T07:00:49;1.40;;;1.03;;
7971;SDS011;4031;49.758;6.120;2023-07-30T07:03:14;1.83;;;1.10;;
7971;SDS011;4031;49.758;6.120;2023-07-30T07:05:40;1.17;;;1.07;;
7971;SDS011;4031;49.758;6.120;2023-07-30T07:08:06;2.80;;;1.10;;
7971;SDS011;4031;49.758;6.120;2023-07-30T07:10:31;2.13;;;1.70;;
7971;SDS011;4031;49.758;6.120;2023-07-30T07:12:57;1.30;;;1.20;;
7971;SDS011;4031;49.758;6.120;2023-07-30T07:15:23;1.00;;;1.00;;
7971;SDS011;4031;49.758;6.120;2023-07-30T07:17:48;3.23;;;1.30;;
7971;SDS011;4031;49.758;6.120;2023-07-30T07:20:14;1.10;;;1.00;;
7971;SDS011;4031;49.758;6.120;2023-07-30T07:22:40;3.63;;;1.80;;
7971;SDS011;4031;49.758;6.120;2023-07-30T07:25:06;3.90;;;1.27;;
7971;SDS011;4031;49.758;6.120;2023-07-30T07:27:32;1.33;;;1.23;;
7971;SDS011;4031;49.758;6.120;2023-07-30T07:29:58;1.53;;;1.23;;
7971;SDS011;4031;49.758;6.120;2023-07-30T07:32:24;4.93;;;1.37;;
7971;SDS011;4031;49.758;6.120;2023-07-30T07:34:50;3.10;;;0.90;;
7971;SDS011;4031;49.758;6.120;2023-07-30T07:37:16;4.77;;;1.67;;
7971;SDS011;4031;49.758;6.120;2023-07-30T07:39:43;2.17;;;0.87;;
7971;SDS011;4031;49.758;6.120;2023-07-30T07:42:12;4.97;;;1.30;;
7971;SDS011;4031;49.758;6.120;2023-07-30T07:44:38;2.27;;;1.20;;
7971;SDS011;4031;49.758;6.120;2023-07-30T07:47:04;2.30;;;1.17;;
7971;SDS011;4031;49.758;6.120;2023-07-30T07:49:30;1.20;;;1.10;;
7971;SDS011;4031;49.758;6.120;2023-07-30T07:51:55;3.03;;;1.43;;
7971;SDS011;4031;49.758;6.120;2023-07-30T07:54:21;5.60;;;1.97;;
7971;SDS011;4031;49.758;6.120;2023-07-30T07:56:47;2.00;;;1.30;;
7971;SDS011;4031;49.758;6.120;2023-07-30T07:59:12;1.50;;;1.40;;
7971;SDS011;4031;49.758;6.120;2023-07-30T08:01:38;1.20;;;1.03;;
7971;SDS011;4031;49.758;6.120;2023-07-30T08:04:04;1.50;;;1.40;;
7971;SDS011;4031;49.758;6.120;2023-07-30T08:06:31;4.20;;;1.43;;
7971;SDS011;4031;49.758;6.120;2023-07-30T08:08:57;1.57;;;1.30;;
7971;SDS011;4031;49.758;6.120;2023-07-30T08:11:23;1.70;;;1.27;;
7971;SDS011;4031;49.758;6.120;2023-07-30T08:13:48;4.37;;;1.90;;
7971;SDS011;4031;49.758;6.120;2023-07-30T08:16:14;2.47;;;1.13;;
7971;SDS011;4031;49.758;6.120;2023-07-30T08:18:40;2.13;;;1.23;;
7971;SDS011;4031;49.758;6.120;2023-07-30T08:21:05;3.10;;;1.80;;
7971;SDS011;4031;49.758;6.120;2023-07-30T08:23:31;2.87;;;1.47;;
7971;SDS011;4031;49.758;6.120;2023-07-30T08:25:57;2.80;;;1.23;;
7971;SDS011;4031;49.758;6.120;2023-07-30T08:28:23;3.93;;;1.60;;
7971;SDS011;4031;49.758;6.120;2023-07-30T08:30:48;4.60;;;1.90;;
7971;SDS011;4031;49.758;6.120;2023-07-30T08:33:14;3.00;;;1.37;;
7971;SDS011;4031;49.758;6.120;2023-07-30T08:35:40;4.93;;;1.27;;
7971;SDS011;4031;49.758;6.120;2023-07-30T08:38:05;1.50;;;1.40;;
7971;SDS011;4031;49.758;6.120;2023-07-30T08:40:31;5.43;;;1.30;;
7971;SDS011;4031;49.758;6.120;2023-07-30T08:42:57;2.67;;;1.03;;
7971;SDS011;4031;49.758;6.120;2023-07-30T08:45:23;6.97;;;1.40;;
7971;SDS011;4031;49.758;6.120;2023-07-30T08:47:49;2.07;;;1.63;;
7971;SDS011;4031;49.758;6.120;2023-07-30T08:50:15;8.80;;;2.70;;
7971;SDS011;4031;49.758;6.120;2023-07-30T08:52:41;4.07;;;1.40;;
7971;SDS011;4031;49.758;6.120;2023-07-30T08:55:07;4.17;;;1.80;;
7971;SDS011;4031;49.758;6.120;2023-07-30T08:57:35;3.37;;;1.67;;
7971;SDS011;4031;49.758;6.120;2023-07-30T09:00:06;5.93;;;1.50;;
7971;SDS011;4031;49.758;6.120;2023-07-30T09:02:41;4.40;;;1.50;;
7971;SDS011;4031;49.758;6.120;2023-07-30T09:05:21;2.50;;;1.50;;
7971;SDS011;4031;49.758;6.120;2023-07-30T09:07:48;1.03;;;0.90;;
7971;SDS011;4031;49.758;6.120;2023-07-30T09:10:14;4.50;;;1.40;;
7971;SDS011;4031;49.758;6.120;2023-07-30T09:12:40;1.77;;;0.93;;
7971;SDS011;4031;49.758;6.120;2023-07-30T09:15:06;6.30;;;1.97;;
7971;SDS011;4031;49.758;6.120;2023-07-30T09:17:33;4.23;;;1.43;;
7971;SDS011;4031;49.758;6.120;2023-07-30T09:20:00;2.30;;;1.17;;
7971;SDS011;4031;49.758;6.120;2023-07-30T09:22:29;4.90;;;1.33;;
7971;SDS011;4031;49.758;6.120;2023-07-30T09:25:06;2.30;;;1.30;;
7971;SDS011;4031;49.758;6.120;2023-07-30T09:27:33;6.00;;;1.80;;
7971;SDS011;4031;49.758;6.120;2023-07-30T09:30:00;3.60;;;1.60;;
7971;SDS011;4031;49.758;6.120;2023-07-30T09:32:32;3.90;;;1.60;;
7971;SDS011;4031;49.758;6.120;2023-07-30T09:35:09;2.50;;;1.57;;
7971;SDS011;4031;49.758;6.120;2023-07-30T09:37:36;3.80;;;1.20;;
7971;SDS011;4031;49.758;6.120;2023-07-30T09:40:06;5.50;;;1.57;;
7971;SDS011;4031;49.758;6.120;2023-07-30T09:42:38;5.40;;;1.50;;
7971;SDS011;4031;49.758;6.120;2023-07-30T09:45:15;2.07;;;1.30;;
7971;SDS011;4031;49.758;6.120;2023-07-30T09:47:50;3.43;;;1.23;;
7971;SDS011;4031;49.758;6.120;2023-07-30T09:50:17;2.87;;;1.37;;
7971;SDS011;4031;49.758;6.120;2023-07-30T09:52:43;7.93;;;1.80;;
7971;SDS011;4031;49.758;6.120;2023-07-30T09:55:09;1.40;;;1.30;;
7971;SDS011;4031;49.758;6.120;2023-07-30T09:57:36;2.50;;;1.20;;
7971;SDS011;4031;49.758;6.120;2023-07-30T10:00:06;3.00;;;1.70;;
7971;SDS011;4031;49.758;6.120;2023-07-30T10:02:37;2.73;;;1.07;;
7971;SDS011;4031;49.758;6.120;2023-07-30T10:05:10;2.53;;;1.40;;
7971;SDS011;4031;49.758;6.120;2023-07-30T10:08:14;1.70;;;1.00;;
7971;SDS011;4031;49.758;6.120;2023-07-30T10:10:34;2.07;;;0.90;;
7971;SDS011;4031;49.758;6.120;2023-07-30T10:13:03;6.07;;;1.30;;
7971;SDS011;4031;49.758;6.120;2023-07-30T10:15:35;4.43;;;1.43;;
7971;SDS011;4031;49.758;6.120;2023-07-30T10:18:03;3.43;;;1.30;;
7971;SDS011;4031;49.758;6.120;2023-07-30T10:20:30;3.00;;;1.60;;
7971;SDS011;4031;49.758;6.120;2023-07-30T10:22:57;3.93;;;1.60;;
7971;SDS011;4031;49.758;6.120;2023-07-30T10:25:28;4.03;;;1.73;;
7971;SDS011;4031;49.758;6.120;2023-07-30T10:30:56;1.33;;;0.90;;
7971;SDS011;4031;49.758;6.120;2023-07-30T10:33:23;4.07;;;1.40;;
7971;SDS011;4031;49.758;6.120;2023-07-30T10:35:52;1.60;;;1.30;;
7971;SDS011;4031;49.758;6.120;2023-07-30T10:38:29;1.83;;;1.37;;
7971;SDS011;4031;49.758;6.120;2023-07-30T10:46:14;1.80;;;1.10;;
7971;SDS011;4031;49.758;6.120;2023-07-30T10:48:43;2.30;;;1.00;;
7971;SDS011;4031;49.758;6.120;2023-07-30T10:51:17;2.20;;;1.10;;
7971;SDS011;4031;49.758;6.120;2023-07-30T10:53:44;1.57;;;1.10;;
7971;SDS011;4031;49.758;6.120;2023-07-30T10:56:12;3.67;;;1.30;;
7971;SDS011;4031;49.758;6.120;2023-07-30T10:58:38;1.47;;;1.30;;
7971;SDS011;4031;49.758;6.120;2023-07-30T11:01:05;3.17;;;1.30;;
7971;SDS011;4031;49.758;6.120;2023-07-30T11:03:32;3.73;;;1.67;;
7971;SDS011;4031;49.758;6.120;2023-07-30T11:05:59;1.77;;;1.50;;
7971;SDS011;4031;49.758;6.120;2023-07-30T11:08:33;2.67;;;1.20;;
7971;SDS011;4031;49.758;6.120;2023-07-30T11:11:01;2.13;;;1.30;;
7971;SDS011;4031;49.758;6.120;2023-07-30T11:13:27;3.27;;;1.10;;
7971;SDS011;4031;49.758;6.120;2023-07-30T11:15:53;2.13;;;1.23;;
7971;SDS011;4031;49.758;6.120;2023-07-30T11:18:19;1.90;;;1.13;;
7971;SDS011;4031;49.758;6.120;2023-07-30T11:20:45;2.90;;;1.57;;
7971;SDS011;4031;49.758;6.120;2023-07-30T11:23:21;2.93;;;1.33;;
7971;SDS011;4031;49.758;6.120;2023-07-30T11:25:48;2.30;;;1.10;;
7971;SDS011;4031;49.758;6.120;2023-07-30T11:28:26;3.80;;;1.50;;
7971;SDS011;4031;49.758;6.120;2023-07-30T11:33:44;2.40;;;1.10;;
7971;SDS011;4031;49.758;6.120;2023-07-30T11:36:14;4.60;;;1.40;;
7971;SDS011;4031;49.758;6.120;2023-07-30T11:38:42;2.27;;;1.60;;
7971;SDS011;4031;49.758;6.120;2023-07-30T11:41:09;2.00;;;1.10;;
7971;SDS011;4031;49.758;6.120;2023-07-30T11:43:37;3.00;;;1.30;;
7971;SDS011;4031;49.758;6.120;2023-07-30T11:46:05;1.20;;;1.00;;
7971;SDS011;4031;49.758;6.120;2023-07-30T11:48:33;3.40;;;1.50;;
7971;SDS011;4031;49.758;6.120;2023-07-30T11:51:00;3.50;;;1.67;;
7971;SDS011;4031;49.758;6.120;2023-07-30T11:53:45;4.13;;;1.23;;
7971;SDS011;4031;49.758;6.120;2023-07-30T11:56:17;2.40;;;1.17;;
7971;SDS011;4031;49.758;6.120;2023-07-30T12:01:33;3.10;;;1.20;;
7971;SDS011;4031;49.758;6.120;2023-07-30T12:04:01;2.23;;;1.13;;
7971;SDS011;4031;49.758;6.120;2023-07-30T12:09:23;1.20;;;1.03;;
7971;SDS011;4031;49.758;6.120;2023-07-30T12:11:53;1.57;;;1.03;;
7971;SDS011;4031;49.758;6.120;2023-07-30T12:14:27;1.90;;;1.07;;
7971;SDS011;4031;49.758;6.120;2023-07-30T12:17:19;1.30;;;1.10;;
7971;SDS011;4031;49.758;6.120;2023-07-30T12:19:44;1.80;;;1.70;;
7971;SDS011;4031;49.758;6.120;2023-07-30T12:22:10;4.23;;;1.40;;
7971;SDS011;4031;49.758;6.120;2023-07-30T12:24:36;3.07;;;1.33;;
7971;SDS011;4031;49.758;6.120;2023-07-30T12:27:01;2.07;;;1.20;;
7971;SDS011;4031;49.758;6.120;2023-07-30T12:29:28;2.60;;;1.30;;
7971;SDS011;4031;49.758;6.120;2023-07-30T12:31:53;2.77;;;1.17;;
7971;SDS011;4031;49.758;6.120;2023-07-30T12:34:21;3.93;;;1.80;;
7971;SDS011;4031;49.758;6.120;2023-07-30T12:36:48;1.43;;;0.80;;
7971;SDS011;4031;49.758;6.120;2023-07-30T12:39:14;3.93;;;1.37;;
7971;SDS011;4031;49.758;6.120;2023-07-30T12:41:40;1.63;;;0.90;;
7971;SDS011;4031;49.758;6.120;2023-07-30T12:44:05;1.43;;;1.07;;
7971;SDS011;4031;49.758;6.120;2023-07-30T12:46:31;3.50;;;1.43;;
7971;SDS011;4031;49.758;6.120;2023-07-30T12:48:58;3.97;;;1.00;;
7971;SDS011;4031;49.758;6.120;2023-07-30T12:51:29;2.60;;;1.10;;
7971;SDS011;4031;49.758;6.120;2023-07-30T12:53:55;1.67;;;1.03;;
7971;SDS011;4031;49.758;6.120;2023-07-30T12:56:21;2.00;;;0.80;;
7971;SDS011;4031;49.758;6.120;2023-07-30T12:58:47;1.63;;;1.00;;
7971;SDS011;4031;49.758;6.120;2023-07-30T13:01:13;1.50;;;1.10;;
7971;SDS011;4031;49.758;6.120;2023-07-30T13:03:38;1.67;;;1.13;;
7971;SDS011;4031;49.758;6.120;2023-07-30T13:06:09;1.87;;;1.03;;
7971;SDS011;4031;49.758;6.120;2023-07-30T13:08:36;1.70;;;0.97;;
7971;SDS011;4031;49.758;6.120;2023-07-30T13:11:03;2.07;;;1.00;;
7971;SDS011;4031;49.758;6.120;2023-07-30T13:13:29;1.97;;;0.90;;
7971;SDS011;4031;49.758;6.120;2023-07-30T13:15:54;1.53;;;0.90;;
7971;SDS011;4031;49.758;6.120;2023-07-30T13:18:23;2.07;;;0.90;;
7971;SDS011;4031;49.758;6.120;2023-07-30T13:20:48;2.10;;;1.10;;
7971;SDS011;4031;49.758;6.120;2023-07-30T13:23:15;2.23;;;0.80;;
7971;SDS011;4031;49.758;6.120;2023-07-30T13:25:41;2.07;;;1.07;;
7971;SDS011;4031;49.758;6.120;2023-07-30T13:28:06;1.53;;;0.60;;
7971;SDS011;4031;49.758;6.120;2023-07-30T13:30:32;2.50;;;0.80;;
7971;SDS011;4031;49.758;6.120;2023-07-30T13:32:58;3.90;;;1.20;;
7971;SDS011;4031;49.758;6.120;2023-07-30T13:35:24;1.23;;;1.00;;
7971;SDS011;4031;49.758;6.120;2023-07-30T13:37:49;1.17;;;0.87;;
7971;SDS011;4031;49.758;6.120;2023-07-30T13:40:15;2.70;;;0.93;;
7971;SDS011;4031;49.758;6.120;2023-07-30T13:42:41;2.50;;;1.07;;
7971;SDS011;4031;49.758;6.120;2023-07-30T13:45:06;1.80;;;0.93;;
7971;SDS011;4031;49.758;6.120;2023-07-30T13:47:32;2.50;;;0.93;;
7971;SDS011;4031;49.758;6.120;2023-07-30T13:49:58;1.90;;;1.20;;
7971;SDS011;4031;49.758;6.120;2023-07-30T13:52:24;1.23;;;0.93;;
7971;SDS011;4031;49.758;6.120;2023-07-30T13:54:49;2.37;;;0.83;;
7971;SDS011;4031;49.758;6.120;2023-07-30T13:57:25;2.60;;;1.20;;
7971;SDS011;4031;49.758;6.120;2023-07-30T13:59:51;1.20;;;1.10;;
7971;SDS011;4031;49.758;6.120;2023-07-30T14:02:18;1.07;;;0.97;;
7971;SDS011;4031;49.758;6.120;2023-07-30T14:04:43;1.17;;;0.80;;
7971;SDS011;4031;49.758;6.120;2023-07-30T14:07:09;1.90;;;1.13;;
7971;SDS011;4031;49.758;6.120;2023-07-30T14:09:35;1.37;;;0.70;;
7971;SDS011;4031;49.758;6.120;2023-07-30T14:12:04;1.57;;;0.90;;
7971;SDS011;4031;49.758;6.120;2023-07-30T14:14:30;2.13;;;1.13;;
7971;SDS011;4031;49.758;6.120;2023-07-30T14:16:56;1.23;;;0.80;;
7971;SDS011;4031;49.758;6.120;2023-07-30T14:19:22;2.17;;;0.83;;
7971;SDS011;4031;49.758;6.120;2023-07-30T14:21:48;4.40;;;1.43;;
7971;SDS011;4031;49.758;6.120;2023-07-30T14:24:13;1.53;;;0.83;;
7971;SDS011;4031;49.758;6.120;2023-07-30T14:26:39;2.50;;;1.07;;
7971;SDS011;4031;49.758;6.120;2023-07-30T14:29:05;1.10;;;0.93;;
7971;SDS011;4031;49.758;6.120;2023-07-30T14:31:31;1.50;;;0.70;;
7971;SDS011;4031;49.758;6.120;2023-07-30T14:33:56;2.67;;;1.20;;
7971;SDS011;4031;49.758;6.120;2023-07-30T14:36:23;1.57;;;1.33;;
7971;SDS011;4031;49.758;6.120;2023-07-30T14:38:48;1.83;;;0.90;;
7971;SDS011;4031;49.758;6.120;2023-07-30T14:41:14;3.20;;;1.07;;
7971;SDS011;4031;49.758;6.120;2023-07-30T14:43:40;0.93;;;0.70;;
7971;SDS011;4031;49.758;6.120;2023-07-30T14:46:05;2.10;;;0.93;;
7971;SDS011;4031;49.758;6.120;2023-07-30T14:48:31;1.40;;;1.00;;
7971;SDS011;4031;49.758;6.120;2023-07-30T14:50:57;2.43;;;1.13;;
7971;SDS011;4031;49.758;6.120;2023-07-30T14:53:23;3.00;;;0.83;;
7971;SDS011;4031;49.758;6.120;2023-07-30T14:55:49;1.23;;;0.80;;
7971;SDS011;4031;49.758;6.120;2023-07-30T14:58:15;3.00;;;0.80;;
7971;SDS011;4031;49.758;6.120;2023-07-30T15:00:40;1.30;;;0.73;;
7971;SDS011;4031;49.758;6.120;2023-07-30T15:03:06;2.03;;;0.80;;
7971;SDS011;4031;49.758;6.120;2023-07-30T15:05:32;1.83;;;0.80;;
7971;SDS011;4031;49.758;6.120;2023-07-30T15:07:58;1.33;;;1.00;;
7971;SDS011;4031;49.758;6.120;2023-07-30T15:10:24;2.00;;;0.77;;
7971;SDS011;4031;49.758;6.120;2023-07-30T15:12:50;2.43;;;0.60;;
7971;SDS011;4031;49.758;6.120;2023-07-30T15:15:15;2.00;;;0.83;;
7971;SDS011;4031;49.758;6.120;2023-07-30T15:17:41;1.43;;;0.83;;
7971;SDS011;4031;49.758;6.120;2023-07-30T15:20:07;1.47;;;0.90;;
7971;SDS011;4031;49.758;6.120;2023-07-30T15:22:34;2.10;;;1.30;;
7971;SDS011;4031;49.758;6.120;2023-07-30T15:24:59;1.17;;;0.67;;
7971;SDS011;4031;49.758;6.120;2023-07-30T15:27:25;1.77;;;0.80;;
7971;SDS011;4031;49.758;6.120;2023-07-30T15:29:51;1.43;;;0.90;;